createdAt,value
2023-04-09T00:02:11.287Z,19.26
2023-04-09T00:04:45.271Z,19.24
2023-04-09T00:07:14.945Z,19.24
2023-04-09T00:09:50.586Z,19.22
2023-04-09T00:12:20.899Z,19.21
2023-04-09T00:14:47.741Z,19.21
2023-04-09T00:17:14.923Z,19.21
2023-04-09T00:19:41.801Z,19.21
2023-04-09T00:22:14.902Z,19.20
2023-04-09T00:24:42.048Z,19.20
2023-04-09T00:27:12.047Z,19.21
2023-04-09T00:29:41.932Z,19.20
2023-04-09T00:32:17.443Z,19.19
2023-04-09T00:34:46.300Z,19.17
2023-04-09T00:37:18.485Z,19.15
2023-04-09T00:39:54.336Z,19.16
2023-04-09T00:42:29.913Z,19.16
2023-04-09T00:45:00.753Z,19.16
2023-04-09T00:47:30.361Z,19.15
2023-04-09T00:50:01.617Z,19.13
2023-04-09T00:52:29.382Z,19.12
2023-04-09T00:54:58.908Z,19.11
2023-04-09T00:57:29.714Z,19.11
2023-04-09T01:00:03.304Z,19.10
2023-04-09T01:02:34.088Z,19.09
2023-04-09T01:05:04.538Z,19.08
2023-04-09T01:07:52.777Z,19.07
2023-04-09T01:10:40.814Z,19.06
2023-04-09T01:13:32.424Z,19.05
2023-04-09T01:16:04.560Z,19.03
2023-04-09T01:18:43.198Z,19.05
2023-04-09T01:21:20.544Z,19.02
2023-04-09T01:24:13.237Z,19.01
2023-04-09T01:27:01.659Z,19.01
2023-04-09T01:29:34.816Z,19.00
2023-04-09T01:32:03.267Z,18.99
2023-04-09T01:34:34.654Z,19.00
2023-04-09T01:37:06.691Z,19.00
2023-04-09T01:39:45.464Z,18.98
2023-04-09T01:42:18.211Z,18.97
2023-04-09T01:44:53.258Z,18.97
2023-04-09T01:47:25.781Z,18.96
2023-04-09T01:50:00.743Z,18.96
2023-04-09T01:52:30.761Z,18.94
2023-04-09T01:55:04.057Z,18.94
2023-04-09T01:57:33.923Z,18.92
2023-04-09T02:00:04.975Z,18.92
2023-04-09T02:02:45.725Z,18.92
2023-04-09T02:05:20.834Z,18.91
2023-04-09T02:07:55.045Z,18.91
2023-04-09T02:10:27.365Z,18.90
2023-04-09T02:12:56.122Z,18.88
2023-04-09T02:15:30.255Z,18.89
2023-04-09T02:18:03.245Z,18.89
2023-04-09T02:20:36.669Z,18.88
2023-04-09T02:23:04.367Z,18.87
2023-04-09T02:25:38.055Z,18.87
2023-04-09T02:28:10.687Z,18.87
2023-04-09T02:30:50.341Z,18.87
2023-04-09T02:33:20.592Z,18.86
2023-04-09T02:35:53.647Z,18.84
2023-04-09T02:38:26.041Z,18.84
2023-04-09T02:40:56.106Z,18.88
2023-04-09T02:43:29.568Z,18.84
2023-04-09T02:46:03.429Z,18.83
2023-04-09T02:48:41.699Z,18.83
2023-04-09T02:51:11.327Z,18.81
2023-04-09T02:53:44.100Z,18.82
2023-04-09T02:56:11.174Z,18.83
2023-04-09T02:58:40.647Z,18.82
2023-04-09T03:01:13.440Z,18.81
2023-04-09T03:03:43.206Z,18.81
2023-04-09T03:06:19.337Z,18.80
2023-04-09T03:08:53.101Z,18.81
2023-04-09T03:11:23.591Z,18.80
2023-04-09T03:13:50.462Z,18.80
2023-04-09T03:16:20.962Z,18.77
2023-04-09T03:18:54.522Z,18.77
2023-04-09T03:21:22.021Z,18.77
2023-04-09T03:23:54.841Z,18.77
2023-04-09T03:26:22.263Z,18.76
2023-04-09T03:28:55.415Z,18.75
2023-04-09T03:31:24.842Z,18.74
2023-04-09T03:33:58.048Z,18.75
2023-04-09T03:36:25.326Z,18.76
2023-04-09T03:38:55.590Z,18.75
2023-04-09T03:41:26.976Z,18.74
2023-04-09T03:43:56.946Z,18.71
2023-04-09T03:46:23.940Z,18.70
2023-04-09T03:48:57.174Z,18.71
2023-04-09T03:51:27.249Z,18.68
2023-04-09T03:54:00.731Z,18.68
2023-04-09T03:56:33.690Z,18.69
2023-04-09T03:59:03.980Z,18.67
2023-04-09T04:01:30.887Z,18.67
2023-04-09T04:04:04.512Z,18.65
2023-04-09T04:06:37.559Z,18.65
2023-04-09T04:09:04.746Z,18.63
2023-04-09T04:11:37.985Z,18.64
2023-04-09T04:14:07.772Z,18.63
2023-04-09T04:16:37.700Z,18.62
2023-04-09T04:19:11.094Z,18.63
2023-04-09T04:21:40.165Z,18.62
2023-04-09T04:24:16.471Z,18.62
2023-04-09T04:26:50.098Z,18.61
2023-04-09T04:29:20.720Z,18.63
2023-04-09T04:31:50.411Z,18.61
2023-04-09T04:34:23.344Z,18.60
2023-04-09T04:36:56.712Z,18.59
2023-04-09T04:39:27.482Z,18.60
2023-04-09T04:42:00.392Z,18.59
2023-04-09T04:44:30.298Z,18.59
2023-04-09T04:47:00.270Z,18.59
2023-04-09T04:49:30.472Z,18.58
2023-04-09T04:52:03.266Z,18.56
2023-04-09T04:54:37.265Z,18.59
2023-04-09T04:57:04.708Z,18.57
2023-04-09T04:59:38.324Z,18.57
2023-04-09T05:02:05.323Z,18.55
2023-04-09T05:04:38.468Z,18.56
2023-04-09T05:07:05.810Z,18.55
2023-04-09T05:09:35.374Z,18.55
2023-04-09T05:12:02.964Z,18.54
2023-04-09T05:14:39.306Z,18.53
2023-04-09T05:17:11.165Z,18.53
2023-04-09T05:19:41.456Z,18.53
2023-04-09T05:22:11.840Z,18.52
2023-04-09T05:24:41.678Z,18.51
2023-04-09T05:27:14.643Z,18.50
2023-04-09T05:29:44.653Z,18.49
2023-04-09T05:32:11.579Z,18.49
2023-04-09T05:34:42.635Z,18.50
2023-04-09T05:37:14.576Z,18.49
2023-04-09T05:39:45.536Z,18.48
2023-04-09T05:42:12.611Z,18.47
2023-04-09T05:44:45.940Z,18.47
2023-04-09T05:47:16.929Z,18.48
2023-04-09T05:49:43.856Z,18.48
2023-04-09T05:52:14.737Z,18.48
2023-04-09T05:54:42.475Z,18.48
2023-04-09T05:57:12.048Z,18.50
2023-04-09T05:59:48.171Z,18.49
2023-04-09T06:02:28.619Z,18.50
2023-04-09T06:04:58.794Z,18.50
2023-04-09T06:07:29.182Z,18.53
2023-04-09T06:09:56.346Z,18.55
2023-04-09T06:12:29.889Z,18.56
2023-04-09T06:14:59.263Z,18.59
2023-04-09T06:17:27.203Z,18.60
2023-04-09T06:19:57.032Z,18.65
2023-04-09T06:22:26.959Z,18.69
2023-04-09T06:24:57.018Z,18.72
2023-04-09T06:27:24.367Z,18.77
2023-04-09T06:29:57.041Z,18.80
2023-04-09T06:32:33.494Z,18.83
2023-04-09T06:35:08.325Z,18.86
2023-04-09T06:37:40.447Z,18.91
2023-04-09T06:40:08.555Z,18.94
2023-04-09T06:42:42.005Z,18.94
2023-04-09T06:45:12.455Z,18.98
2023-04-09T06:47:39.772Z,19.02
2023-04-09T06:50:12.428Z,19.02
2023-04-09T06:52:39.424Z,19.05
2023-04-09T06:55:09.379Z,19.09
2023-04-09T06:57:39.070Z,19.11
2023-04-09T07:00:09.395Z,19.15
2023-04-09T07:02:37.287Z,19.16
2023-04-09T07:05:05.211Z,19.21
2023-04-09T07:07:35.415Z,19.23
2023-04-09T07:10:07.920Z,19.27
2023-04-09T07:12:38.006Z,19.32
2023-04-09T07:15:07.239Z,19.35
2023-04-09T07:17:37.695Z,19.41
2023-04-09T07:20:08.055Z,19.41
2023-04-09T07:22:36.392Z,19.45
2023-04-09T07:25:06.864Z,19.48
2023-04-09T07:27:36.960Z,19.49
2023-04-09T07:30:07.154Z,19.52
2023-04-09T07:32:40.165Z,19.52
2023-04-09T07:35:07.734Z,19.55
2023-04-09T07:37:34.602Z,19.58
2023-04-09T07:40:02.313Z,19.60
2023-04-09T07:42:29.750Z,19.60
2023-04-09T07:45:02.363Z,19.64
2023-04-09T07:47:34.229Z,19.60
2023-04-09T07:50:01.121Z,19.61
2023-04-09T07:52:31.141Z,19.62
2023-04-09T07:55:01.280Z,19.60
2023-04-09T07:57:32.615Z,19.64
2023-04-09T08:00:05.453Z,19.66
2023-04-09T08:02:32.605Z,19.67
2023-04-09T08:05:09.021Z,19.67
2023-04-09T08:07:39.326Z,19.71
2023-04-09T08:10:12.977Z,19.74
2023-04-09T08:12:42.674Z,19.74
2023-04-09T08:15:13.233Z,19.72
2023-04-09T08:17:43.067Z,19.74
2023-04-09T08:20:13.882Z,19.76
2023-04-09T08:22:50.146Z,19.76
2023-04-09T08:25:17.463Z,19.78
2023-04-09T08:27:48.912Z,19.79
2023-04-09T08:30:19.133Z,19.80
2023-04-09T08:32:49.311Z,19.83
2023-04-09T08:35:16.355Z,19.85
2023-04-09T08:37:46.676Z,19.86
2023-04-09T08:40:17.186Z,19.90
2023-04-09T08:42:56.828Z,19.91
2023-04-09T08:45:27.052Z,19.94
2023-04-09T08:48:00.624Z,19.96
2023-04-09T08:50:32.006Z,19.97
2023-04-09T08:53:10.334Z,19.98
2023-04-09T08:55:41.019Z,19.99
2023-04-09T08:58:13.955Z,20.00
2023-04-09T09:00:43.934Z,20.01
2023-04-09T09:03:15.806Z,20.02
2023-04-09T09:05:47.028Z,20.02
2023-04-09T09:08:26.958Z,20.04
2023-04-09T09:10:56.996Z,20.04
2023-04-09T09:13:31.119Z,20.06
2023-04-09T09:16:15.294Z,20.06
2023-04-09T09:18:48.702Z,20.07
2023-04-09T09:21:22.196Z,20.07
2023-04-09T09:23:54.806Z,20.08
2023-04-09T09:26:30.897Z,20.08
2023-04-09T09:29:03.912Z,20.09
2023-04-09T09:31:45.648Z,20.09
2023-04-09T09:34:12.784Z,20.11
2023-04-09T09:36:42.799Z,20.11
2023-04-09T09:39:12.893Z,20.11
2023-04-09T09:41:46.584Z,20.12
2023-04-09T09:44:35.028Z,20.13
2023-04-09T09:47:05.890Z,20.11
2023-04-09T09:49:39.051Z,20.12
2023-04-09T09:52:10.857Z,20.13
2023-04-09T09:54:45.795Z,20.13
2023-04-09T09:57:18.773Z,20.13
2023-04-09T09:59:54.333Z,20.14
2023-04-09T10:02:31.907Z,20.15
2023-04-09T10:05:06.297Z,20.15
2023-04-09T10:07:37.517Z,20.16
2023-04-09T10:10:11.573Z,20.16
2023-04-09T10:12:44.478Z,20.17
2023-04-09T10:15:12.303Z,20.17
2023-04-09T10:17:42.339Z,20.17
2023-04-09T10:20:33.087Z,20.18
2023-04-09T10:23:06.134Z,20.17
2023-04-09T10:25:38.911Z,20.17
2023-04-09T10:28:17.973Z,20.19
2023-04-09T10:30:46.165Z,20.18
2023-04-09T10:33:15.149Z,20.18
2023-04-09T10:35:47.763Z,20.18
2023-04-09T10:38:15.603Z,20.17
2023-04-09T10:40:54.406Z,20.17
2023-04-09T10:43:24.297Z,20.17
2023-04-09T10:45:58.782Z,20.18
2023-04-09T10:48:28.594Z,20.15
2023-04-09T10:50:56.041Z,20.17
2023-04-09T10:53:25.002Z,20.17
2023-04-09T10:55:59.189Z,20.17
2023-04-09T10:58:29.178Z,20.16
2023-04-09T11:01:01.552Z,20.17
2023-04-09T11:03:30.905Z,20.17
2023-04-09T11:06:06.691Z,20.17
2023-04-09T11:08:41.119Z,20.16
2023-04-09T11:11:10.763Z,20.17
2023-04-09T11:13:43.130Z,20.17
2023-04-09T11:16:12.788Z,20.17
2023-04-09T11:18:53.393Z,20.17
2023-04-09T11:21:30.086Z,20.17
2023-04-09T11:24:01.169Z,20.15
2023-04-09T11:26:38.898Z,20.17
2023-04-09T11:29:08.417Z,20.16
2023-04-09T11:31:38.774Z,20.17
2023-04-09T11:34:08.668Z,20.17
2023-04-09T11:36:41.406Z,20.18
2023-04-09T11:39:11.184Z,20.18
2023-04-09T11:41:40.851Z,20.17
2023-04-09T11:44:14.552Z,20.17
2023-04-09T11:46:46.043Z,20.17
2023-04-09T11:49:13.220Z,20.17
2023-04-09T11:51:45.992Z,20.18
2023-04-09T11:54:13.840Z,20.18
2023-04-09T11:56:46.454Z,20.17
2023-04-09T11:59:16.111Z,20.16
2023-04-09T12:01:48.896Z,20.17
2023-04-09T12:04:26.033Z,20.18
2023-04-09T12:06:59.457Z,20.22
2023-04-09T12:09:26.459Z,20.22
2023-04-09T12:11:56.155Z,20.25
2023-04-09T12:14:28.093Z,20.26
2023-04-09T12:16:57.978Z,20.27
2023-04-09T12:19:26.067Z,20.27
2023-04-09T12:22:02.973Z,20.28
2023-04-09T12:24:35.763Z,20.28
2023-04-09T12:27:07.617Z,20.29
2023-04-09T12:29:37.976Z,20.28
2023-04-09T12:32:05.365Z,20.27
2023-04-09T12:34:32.364Z,20.26
2023-04-09T12:37:02.764Z,20.27
2023-04-09T12:39:34.387Z,20.26
2023-04-09T12:42:01.529Z,20.26
2023-04-09T12:44:31.324Z,20.26
2023-04-09T12:47:05.807Z,20.26
2023-04-09T12:49:36.197Z,20.24
2023-04-09T12:52:09.747Z,20.24
2023-04-09T12:54:38.872Z,20.25
2023-04-09T12:57:09.141Z,20.25
2023-04-09T12:59:44.182Z,20.23
2023-04-09T13:02:14.195Z,20.22
2023-04-09T13:04:44.266Z,20.23
2023-04-09T13:07:18.922Z,20.21
2023-04-09T13:09:46.963Z,20.22
2023-04-09T13:12:17.082Z,20.21
2023-04-09T13:14:50.422Z,20.21
2023-04-09T13:17:23.129Z,20.19
2023-04-09T13:19:54.360Z,20.19
2023-04-09T13:22:21.681Z,20.21
2023-04-09T13:24:54.275Z,20.22
2023-04-09T13:27:21.344Z,20.20
2023-04-09T13:29:48.614Z,20.21
2023-04-09T13:32:15.596Z,20.21
2023-04-09T13:34:46.361Z,20.21
2023-04-09T13:37:13.195Z,20.20
2023-04-09T13:39:40.579Z,20.19
2023-04-09T13:42:14.056Z,20.19
2023-04-09T13:44:47.253Z,20.20
2023-04-09T13:47:18.221Z,20.21
2023-04-09T13:49:50.984Z,20.21
2023-04-09T13:52:29.665Z,20.22
2023-04-09T13:55:02.836Z,20.23
2023-04-09T13:57:35.872Z,20.26
2023-04-09T14:00:02.552Z,20.26
2023-04-09T14:02:29.569Z,20.29
2023-04-09T14:04:56.715Z,20.28
2023-04-09T14:07:26.326Z,20.29
2023-04-09T14:09:53.268Z,20.28
2023-04-09T14:12:23.230Z,20.28
2023-04-09T14:14:56.568Z,20.26
2023-04-09T14:17:29.675Z,20.27
2023-04-09T14:19:56.940Z,20.28
2023-04-09T14:22:38.178Z,20.29
2023-04-09T14:25:14.360Z,20.28
2023-04-09T14:27:44.544Z,20.28
2023-04-09T14:30:15.511Z,20.23
2023-04-09T14:32:48.421Z,20.21
2023-04-09T14:35:15.652Z,20.21
2023-04-09T14:37:45.988Z,20.27
2023-04-09T14:40:13.236Z,20.30
2023-04-09T14:42:46.293Z,20.35
2023-04-09T14:45:13.079Z,20.32
2023-04-09T14:47:43.352Z,20.30
2023-04-09T14:50:13.727Z,20.31
2023-04-09T14:52:40.843Z,20.30
2023-04-09T14:55:13.594Z,20.32
2023-04-09T14:57:41.611Z,20.35
2023-04-09T15:00:12.773Z,20.37
2023-04-09T15:02:42.664Z,20.35
2023-04-09T15:05:10.118Z,20.35
2023-04-09T15:07:37.255Z,20.36
2023-04-09T15:10:04.495Z,20.39
2023-04-09T15:12:32.185Z,20.36
2023-04-09T15:15:09.314Z,20.39
2023-04-09T15:17:40.349Z,20.38
2023-04-09T15:20:11.445Z,20.34
2023-04-09T15:22:47.725Z,20.33
2023-04-09T15:25:14.755Z,20.33
2023-04-09T15:27:41.720Z,20.33
2023-04-09T15:30:12.018Z,20.37
2023-04-09T15:32:40.605Z,20.34
2023-04-09T15:35:11.068Z,20.32
2023-04-09T15:37:41.069Z,20.34
2023-04-09T15:40:11.362Z,20.35
2023-04-09T15:42:44.977Z,20.35
2023-04-09T15:45:15.128Z,20.34
2023-04-09T15:47:49.683Z,20.36
2023-04-09T15:50:19.685Z,20.37
2023-04-09T15:52:49.754Z,20.37
2023-04-09T15:55:16.829Z,20.38
2023-04-09T15:57:47.110Z,20.38
2023-04-09T16:00:17.649Z,20.38
2023-04-09T16:02:44.528Z,20.39
2023-04-09T16:05:11.440Z,20.40
2023-04-09T16:07:38.688Z,20.41
2023-04-09T16:10:06.545Z,20.42
2023-04-09T16:12:33.420Z,20.41
2023-04-09T16:15:00.330Z,20.41
2023-04-09T16:17:40.216Z,20.42
2023-04-09T16:20:08.703Z,20.42
2023-04-09T16:22:36.687Z,20.45
2023-04-09T16:25:03.594Z,20.46
2023-04-09T16:27:31.137Z,20.48
2023-04-09T16:29:58.341Z,20.53
2023-04-09T16:32:25.480Z,20.56
2023-04-09T16:34:52.483Z,20.61
2023-04-09T16:37:31.013Z,20.64
2023-04-09T16:39:59.379Z,20.65
2023-04-09T16:42:26.280Z,20.73
2023-04-09T16:44:53.247Z,20.67
2023-04-09T16:47:20.673Z,20.55
2023-04-09T16:49:50.030Z,20.42
2023-04-09T16:52:16.926Z,20.32
2023-04-09T16:54:43.843Z,20.21
2023-04-09T16:57:11.159Z,20.08
2023-04-09T16:59:38.036Z,20.02
2023-04-09T17:02:06.584Z,20.00
2023-04-09T17:04:37.119Z,20.04
2023-04-09T17:07:04.454Z,20.07
2023-04-09T17:09:31.750Z,20.12
2023-04-09T17:12:01.246Z,20.17
2023-04-09T17:14:31.058Z,20.19
2023-04-09T17:16:58.362Z,20.22
2023-04-09T17:19:25.360Z,20.25
2023-04-09T17:21:56.552Z,20.26
2023-04-09T17:24:24.457Z,20.27
2023-04-09T17:26:55.198Z,20.27
2023-04-09T17:29:28.759Z,20.29
2023-04-09T17:31:57.865Z,20.28
2023-04-09T17:34:29.715Z,20.31
2023-04-09T17:36:58.220Z,20.33
2023-04-09T17:39:25.439Z,20.35
2023-04-09T17:41:52.492Z,20.37
2023-04-09T17:44:19.596Z,20.40
2023-04-09T17:46:49.419Z,20.41
2023-04-09T17:49:19.233Z,20.43
2023-04-09T17:51:52.181Z,20.45
2023-04-09T17:54:19.511Z,20.46
2023-04-09T17:56:48.999Z,20.48
2023-04-09T17:59:16.251Z,20.48
2023-04-09T18:01:43.392Z,20.54
2023-04-09T18:04:13.365Z,20.53
2023-04-09T18:06:45.251Z,20.48
2023-04-09T18:09:14.738Z,20.51
2023-04-09T18:11:42.271Z,20.48
2023-04-09T18:14:09.734Z,20.47
2023-04-09T18:16:40.266Z,20.46
2023-04-09T18:19:08.088Z,20.47
2023-04-09T18:21:35.239Z,20.48
2023-04-09T18:24:05.152Z,20.52
2023-04-09T18:26:38.076Z,20.53
2023-04-09T18:29:05.100Z,20.56
2023-04-09T18:31:32.884Z,20.62
2023-04-09T18:34:01.186Z,20.63
2023-04-09T18:36:31.521Z,20.62
2023-04-09T18:38:58.921Z,20.63
2023-04-09T18:41:27.273Z,20.63
2023-04-09T18:43:58.280Z,20.63
2023-04-09T18:46:27.990Z,20.63
2023-04-09T18:48:59.052Z,20.61
2023-04-09T18:51:29.267Z,20.61
2023-04-09T18:53:59.796Z,20.56
2023-04-09T18:56:30.858Z,20.55
2023-04-09T18:59:01.646Z,20.55
2023-04-09T19:01:29.226Z,20.55
2023-04-09T19:03:57.183Z,20.56
2023-04-09T19:06:28.011Z,20.56
2023-04-09T19:08:55.805Z,20.57
2023-04-09T19:11:24.481Z,20.55
2023-04-09T19:13:52.342Z,20.53
2023-04-09T19:16:20.962Z,20.51
2023-04-09T19:18:49.006Z,20.51
2023-04-09T19:21:23.048Z,20.50
2023-04-09T19:23:53.639Z,20.46
2023-04-09T19:26:23.797Z,20.46
2023-04-09T19:28:54.540Z,20.46
2023-04-09T19:31:22.995Z,20.46
2023-04-09T19:33:50.542Z,20.45
2023-04-09T19:36:18.232Z,20.44
2023-04-09T19:38:45.495Z,20.44
2023-04-09T19:41:13.743Z,20.42
2023-04-09T19:43:44.288Z,20.41
2023-04-09T19:46:15.588Z,20.41
2023-04-09T19:48:48.887Z,20.39
2023-04-09T19:51:19.394Z,20.42
2023-04-09T19:53:50.991Z,20.37
2023-04-09T19:56:22.009Z,20.39
2023-04-09T19:58:56.593Z,20.37
2023-04-09T20:01:26.973Z,20.32
2023-04-09T20:03:57.952Z,20.37
2023-04-09T20:06:28.820Z,20.36
2023-04-09T20:08:59.818Z,20.34
2023-04-09T20:11:30.857Z,20.35
2023-04-09T20:14:00.955Z,20.34
2023-04-09T20:16:35.448Z,20.34
2023-04-09T20:19:09.333Z,20.32
2023-04-09T20:21:39.848Z,20.33
2023-04-09T20:24:14.511Z,20.30
2023-04-09T20:26:47.804Z,20.27
2023-04-09T20:29:18.827Z,20.25
2023-04-09T20:31:52.286Z,20.22
2023-04-09T20:34:19.721Z,20.24
2023-04-09T20:36:50.960Z,20.24
2023-04-09T20:39:26.487Z,20.21
2023-04-09T20:41:57.298Z,20.22
2023-04-09T20:44:26.106Z,20.21
2023-04-09T20:46:55.146Z,20.20
2023-04-09T20:49:29.359Z,20.19
2023-04-09T20:52:00.407Z,20.18
2023-04-09T20:54:31.814Z,20.16
2023-04-09T20:57:05.512Z,20.18
2023-04-09T20:59:39.881Z,20.17
2023-04-09T21:02:16.073Z,20.16
2023-04-09T21:04:47.403Z,20.15
2023-04-09T21:07:15.359Z,20.14
2023-04-09T21:09:42.995Z,20.12
2023-04-09T21:12:10.935Z,20.10
2023-04-09T21:14:44.284Z,20.10
2023-04-09T21:17:14.486Z,20.10
2023-04-09T21:19:45.130Z,20.08
2023-04-09T21:22:14.355Z,20.08
2023-04-09T21:24:42.603Z,20.09
2023-04-09T21:27:19.714Z,20.06
2023-04-09T21:29:50.109Z,20.05
2023-04-09T21:32:23.893Z,20.04
2023-04-09T21:35:00.460Z,20.02
2023-04-09T21:37:31.321Z,20.00
2023-04-09T21:40:05.802Z,20.00
2023-04-09T21:42:37.182Z,19.96
2023-04-09T21:45:08.667Z,19.96
2023-04-09T21:47:38.899Z,19.95
2023-04-09T21:50:07.404Z,19.95
2023-04-09T21:52:38.048Z,19.90
2023-04-09T21:55:09.462Z,19.90
2023-04-09T21:57:43.088Z,19.89
2023-04-09T22:00:17.614Z,19.89
2023-04-09T22:02:48.766Z,19.89
2023-04-09T22:05:22.540Z,19.86
2023-04-09T22:07:54.409Z,19.85
2023-04-09T22:10:22.257Z,19.85
2023-04-09T22:12:52.859Z,19.84
2023-04-09T22:15:29.733Z,19.82
2023-04-09T22:17:59.646Z,19.82
2023-04-09T22:20:30.464Z,19.80
2023-04-09T22:23:03.262Z,19.79
2023-04-09T22:25:34.152Z,19.78
2023-04-09T22:28:01.606Z,19.78
2023-04-09T22:30:29.775Z,19.77
2023-04-09T22:32:59.779Z,19.76
2023-04-09T22:35:30.074Z,19.75
2023-04-09T22:37:57.649Z,19.76
2023-04-09T22:40:25.544Z,19.74
2023-04-09T22:42:53.161Z,19.73
2023-04-09T22:45:24.251Z,19.73
2023-04-09T22:47:51.995Z,19.70
2023-04-09T22:50:25.655Z,19.69
2023-04-09T22:52:56.423Z,19.69
2023-04-09T22:55:29.805Z,19.67
2023-04-09T22:57:59.874Z,19.68
2023-04-09T23:00:29.984Z,19.67
2023-04-09T23:02:57.678Z,19.66
2023-04-09T23:05:25.195Z,19.66
2023-04-09T23:07:55.546Z,19.66
2023-04-09T23:10:31.607Z,19.64
2023-04-09T23:12:58.972Z,19.62
2023-04-09T23:15:32.463Z,19.62
2023-04-09T23:18:09.732Z,19.59
2023-04-09T23:20:41.207Z,19.60
2023-04-09T23:23:11.400Z,19.60
2023-04-09T23:25:44.577Z,19.56
2023-04-09T23:28:18.120Z,19.57
2023-04-09T23:30:51.134Z,19.58
2023-04-09T23:33:18.284Z,19.57
2023-04-09T23:35:47.950Z,19.55
2023-04-09T23:38:15.611Z,19.55
2023-04-09T23:40:46.434Z,19.52
2023-04-09T23:43:14.487Z,19.51
2023-04-09T23:45:44.953Z,19.52
2023-04-09T23:48:18.432Z,19.50
2023-04-09T23:50:49.097Z,19.49
2023-04-09T23:53:27.857Z,19.49
2023-04-09T23:55:58.376Z,19.47
2023-04-09T23:58:28.604Z,19.48
